sensor_id;sensor_type;location;lat;lon;timestamp;pressure;altitude;pressure_sealevel;temperature;humidity
61761;BME280;47664;51.660;-0.100;2023-08-31T00:01:11;100278.04;;;15.36;48.05
61761;BME280;47664;51.660;-0.100;2023-08-31T00:03:38;100281.60;;;15.77;47.89
61761;BME280;47664;51.660;-0.100;2023-08-31T00:06:05;100284.65;;;15.61;47.62
61761;BME280;47664;51.660;-0.100;2023-08-31T00:08:33;100283.86;;;15.95;47.52
61761;BME280;47664;51.660;-0.100;2023-08-31T00:11:01;100287.01;;;15.77;47.34
61761;BME280;47664;51.660;-0.100;2023-08-31T00:13:28;100286.89;;;15.65;47.53
61761;BME280;47664;51.660;-0.100;2023-08-31T00:15:56;100285.55;;;15.59;47.61
61761;BME280;47664;51.660;-0.100;2023-08-31T00:18:23;100282.55;;;15.58;47.62
61761;BME280;47664;51.660;-0.100;2023-08-31T00:20:50;100281.34;;;15.59;47.62
61761;BME280;47664;51.660;-0.100;2023-08-31T00:23:17;100278.84;;;15.62;47.57
61761;BME280;47664;51.660;-0.100;2023-08-31T00:25:44;100277.31;;;15.44;47.54
61761;BME280;47664;51.660;-0.100;2023-08-31T00:28:12;100279.01;;;15.86;47.61
61761;BME280;47664;51.660;-0.100;2023-08-31T00:30:38;100282.20;;;15.47;47.83
61761;BME280;47664;51.660;-0.100;2023-08-31T00:33:06;100281.34;;;15.43;47.86
61761;BME280;47664;51.660;-0.100;2023-08-31T00:35:33;100276.65;;;15.65;47.87
61761;BME280;47664;51.660;-0.100;2023-08-31T00:38:01;100275.20;;;15.26;48.06
61761;BME280;47664;51.660;-0.100;2023-08-31T00:40:28;100276.13;;;15.59;47.97
61761;BME280;47664;51.660;-0.100;2023-08-31T00:42:55;100275.95;;;15.35;48.04
61761;BME280;47664;51.660;-0.100;2023-08-31T00:45:22;100274.05;;;14.72;49.38
61761;BME280;47664;51.660;-0.100;2023-08-31T00:47:50;100274.94;;;14.24;50.57
61761;BME280;47664;51.660;-0.100;2023-08-31T00:50:18;100273.70;;;14.51;50.76
61761;BME280;47664;51.660;-0.100;2023-08-31T00:52:46;100265.37;;;14.76;50.45
61761;BME280;47664;51.660;-0.100;2023-08-31T00:55:13;100262.96;;;14.32;50.35
61761;BME280;47664;51.660;-0.100;2023-08-31T00:57:40;100269.41;;;14.51;51.40
61761;BME280;47664;51.660;-0.100;2023-08-31T01:00:09;100262.68;;;14.55;51.28
61761;BME280;47664;51.660;-0.100;2023-08-31T01:02:43;100258.56;;;14.76;50.91
61761;BME280;47664;51.660;-0.100;2023-08-31T01:05:27;100263.31;;;14.82;50.24
61761;BME280;47664;51.660;-0.100;2023-08-31T01:07:58;100263.67;;;14.94;50.08
61761;BME280;47664;51.660;-0.100;2023-08-31T01:10:34;100270.43;;;14.83;49.89
61761;BME280;47664;51.660;-0.100;2023-08-31T01:13:10;100268.56;;;15.05;49.54
61761;BME280;47664;51.660;-0.100;2023-08-31T01:15:41;100261.61;;;15.23;49.29
61761;BME280;47664;51.660;-0.100;2023-08-31T01:18:10;100259.32;;;15.26;49.06
61761;BME280;47664;51.660;-0.100;2023-08-31T01:20:44;100258.76;;;15.09;49.02
61761;BME280;47664;51.660;-0.100;2023-08-31T01:23:16;100258.58;;;15.01;49.27
61761;BME280;47664;51.660;-0.100;2023-08-31T01:25:46;100259.41;;;14.64;48.76
61761;BME280;47664;51.660;-0.100;2023-08-31T01:28:14;100258.90;;;15.37;48.84
61761;BME280;47664;51.660;-0.100;2023-08-31T01:30:42;100253.54;;;15.42;48.96
61761;BME280;47664;51.660;-0.100;2023-08-31T01:33:09;100253.01;;;15.20;48.74
61761;BME280;47664;51.660;-0.100;2023-08-31T01:35:42;100252.42;;;15.22;48.72
61761;BME280;47664;51.660;-0.100;2023-08-31T01:38:11;100255.19;;;15.23;49.13
61761;BME280;47664;51.660;-0.100;2023-08-31T01:40:47;100258.87;;;15.13;49.03
61761;BME280;47664;51.660;-0.100;2023-08-31T01:43:17;100256.72;;;15.05;48.93
61761;BME280;47664;51.660;-0.100;2023-08-31T01:45:46;100254.85;;;14.80;49.07
61761;BME280;47664;51.660;-0.100;2023-08-31T01:48:14;100254.78;;;15.20;49.33
61761;BME280;47664;51.660;-0.100;2023-08-31T01:50:41;100254.94;;;15.23;49.22
61761;BME280;47664;51.660;-0.100;2023-08-31T01:53:08;100255.48;;;15.20;49.23
61761;BME280;47664;51.660;-0.100;2023-08-31T01:55:35;100257.46;;;14.78;49.22
61761;BME280;47664;51.660;-0.100;2023-08-31T01:58:02;100260.95;;;15.19;48.99
61761;BME280;47664;51.660;-0.100;2023-08-31T02:00:29;100258.27;;;15.35;48.96
61761;BME280;47664;51.660;-0.100;2023-08-31T02:02:56;100253.05;;;14.90;48.96
61761;BME280;47664;51.660;-0.100;2023-08-31T02:05:23;100250.94;;;15.18;49.18
61761;BME280;47664;51.660;-0.100;2023-08-31T02:07:50;100252.50;;;14.75;49.02
61761;BME280;47664;51.660;-0.100;2023-08-31T02:10:17;100251.88;;;14.95;49.12
61761;BME280;47664;51.660;-0.100;2023-08-31T02:12:44;100251.97;;;14.64;49.19
61761;BME280;47664;51.660;-0.100;2023-08-31T02:15:11;100255.00;;;15.09;49.37
61761;BME280;47664;51.660;-0.100;2023-08-31T02:17:38;100250.74;;;15.06;49.13
61761;BME280;47664;51.660;-0.100;2023-08-31T02:20:06;100251.27;;;15.13;49.09
61761;BME280;47664;51.660;-0.100;2023-08-31T02:22:35;100251.96;;;15.17;49.11
61761;BME280;47664;51.660;-0.100;2023-08-31T02:25:02;100255.85;;;15.28;49.01
61761;BME280;47664;51.660;-0.100;2023-08-31T02:27:29;100260.42;;;14.95;49.42
61761;BME280;47664;51.660;-0.100;2023-08-31T02:29:56;100262.05;;;14.62;49.64
61761;BME280;47664;51.660;-0.100;2023-08-31T02:32:23;100260.06;;;14.92;49.66
61761;BME280;47664;51.660;-0.100;2023-08-31T02:34:50;100258.07;;;14.46;49.48
61761;BME280;47664;51.660;-0.100;2023-08-31T02:37:16;100260.91;;;15.06;49.43
61761;BME280;47664;51.660;-0.100;2023-08-31T02:39:43;100257.57;;;15.12;49.48
61761;BME280;47664;51.660;-0.100;2023-08-31T02:42:10;100254.29;;;15.15;49.37
61761;BME280;47664;51.660;-0.100;2023-08-31T02:44:37;100257.61;;;15.31;49.29
61761;BME280;47664;51.660;-0.100;2023-08-31T02:47:05;100258.34;;;15.27;49.33
61761;BME280;47664;51.660;-0.100;2023-08-31T02:49:31;100253.59;;;15.46;48.99
61761;BME280;47664;51.660;-0.100;2023-08-31T02:51:58;100247.01;;;14.89;49.02
61761;BME280;47664;51.660;-0.100;2023-08-31T02:54:26;100248.39;;;14.91;49.01
61761;BME280;47664;51.660;-0.100;2023-08-31T02:56:53;100245.95;;;14.83;49.10
61761;BME280;47664;51.660;-0.100;2023-08-31T02:59:20;100242.86;;;15.46;48.80
61761;BME280;47664;51.660;-0.100;2023-08-31T03:01:48;100247.70;;;14.45;49.40
61761;BME280;47664;51.660;-0.100;2023-08-31T03:04:16;100250.99;;;14.73;49.50
61761;BME280;47664;51.660;-0.100;2023-08-31T03:06:43;100252.26;;;14.86;49.94
61761;BME280;47664;51.660;-0.100;2023-08-31T03:09:10;100252.60;;;14.79;49.77
61761;BME280;47664;51.660;-0.100;2023-08-31T03:11:37;100250.80;;;15.11;49.63
61761;BME280;47664;51.660;-0.100;2023-08-31T03:14:04;100247.11;;;14.94;49.54
61761;BME280;47664;51.660;-0.100;2023-08-31T03:16:31;100247.73;;;15.14;49.48
61761;BME280;47664;51.660;-0.100;2023-08-31T03:18:58;100251.06;;;14.84;49.89
61761;BME280;47664;51.660;-0.100;2023-08-31T03:21:25;100255.58;;;15.11;50.04
61761;BME280;47664;51.660;-0.100;2023-08-31T03:23:52;100255.40;;;14.53;50.22
61761;BME280;47664;51.660;-0.100;2023-08-31T03:26:19;100253.27;;;14.90;49.93
61761;BME280;47664;51.660;-0.100;2023-08-31T03:28:46;100250.31;;;14.41;50.14
61761;BME280;47664;51.660;-0.100;2023-08-31T03:31:13;100250.19;;;15.00;49.88
61761;BME280;47664;51.660;-0.100;2023-08-31T03:33:40;100248.20;;;15.00;49.91
61761;BME280;47664;51.660;-0.100;2023-08-31T03:36:08;100249.06;;;15.19;49.65
61761;BME280;47664;51.660;-0.100;2023-08-31T03:38:35;100247.77;;;15.09;49.76
61761;BME280;47664;51.660;-0.100;2023-08-31T03:41:02;100245.58;;;14.86;49.74
61761;BME280;47664;51.660;-0.100;2023-08-31T03:43:29;100248.13;;;14.94;49.74
61761;BME280;47664;51.660;-0.100;2023-08-31T03:45:57;100250.30;;;14.69;50.41
61761;BME280;47664;51.660;-0.100;2023-08-31T03:48:24;100242.44;;;14.99;50.09
61761;BME280;47664;51.660;-0.100;2023-08-31T03:50:52;100240.46;;;14.78;50.33
61761;BME280;47664;51.660;-0.100;2023-08-31T03:53:19;100242.30;;;14.48;50.99
61761;BME280;47664;51.660;-0.100;2023-08-31T03:55:46;100251.27;;;14.20;51.98
61761;BME280;47664;51.660;-0.100;2023-08-31T03:58:13;100247.93;;;14.60;51.72
61761;BME280;47664;51.660;-0.100;2023-08-31T04:00:41;100243.78;;;14.21;51.60
61761;BME280;47664;51.660;-0.100;2023-08-31T04:03:09;100249.38;;;14.54;51.00
61761;BME280;47664;51.660;-0.100;2023-08-31T04:05:36;100252.02;;;14.74;50.64
61761;BME280;47664;51.660;-0.100;2023-08-31T04:08:04;100250.46;;;14.59;50.51
61761;BME280;47664;51.660;-0.100;2023-08-31T04:10:31;100254.02;;;14.96;50.48
61761;BME280;47664;51.660;-0.100;2023-08-31T04:12:58;100256.37;;;14.73;50.52
61761;BME280;47664;51.660;-0.100;2023-08-31T04:15:25;100257.41;;;15.04;50.06
61761;BME280;47664;51.660;-0.100;2023-08-31T04:17:51;100254.07;;;14.45;50.06
61761;BME280;47664;51.660;-0.100;2023-08-31T04:20:19;100253.38;;;14.58;50.25
61761;BME280;47664;51.660;-0.100;2023-08-31T04:22:46;100255.53;;;14.30;50.21
61761;BME280;47664;51.660;-0.100;2023-08-31T04:25:14;100256.80;;;14.80;50.79
61761;BME280;47664;51.660;-0.100;2023-08-31T04:27:41;100256.84;;;14.71;50.63
61761;BME280;47664;51.660;-0.100;2023-08-31T04:30:09;100251.31;;;15.00;50.10
61761;BME280;47664;51.660;-0.100;2023-08-31T04:32:36;100250.50;;;14.92;50.16
61761;BME280;47664;51.660;-0.100;2023-08-31T04:35:03;100251.33;;;14.83;50.77
61761;BME280;47664;51.660;-0.100;2023-08-31T04:37:31;100255.84;;;14.82;50.89
61761;BME280;47664;51.660;-0.100;2023-08-31T04:39:59;100256.97;;;14.60;50.86
61761;BME280;47664;51.660;-0.100;2023-08-31T04:42:26;100262.93;;;14.75;50.73
61761;BME280;47664;51.660;-0.100;2023-08-31T04:44:53;100264.58;;;14.85;50.61
61761;BME280;47664;51.660;-0.100;2023-08-31T04:47:20;100263.43;;;14.52;50.68
61761;BME280;47664;51.660;-0.100;2023-08-31T04:49:47;100267.46;;;14.47;50.71
61761;BME280;47664;51.660;-0.100;2023-08-31T04:52:15;100272.82;;;14.82;50.65
61761;BME280;47664;51.660;-0.100;2023-08-31T04:54:42;100275.69;;;14.69;50.65
61761;BME280;47664;51.660;-0.100;2023-08-31T04:57:10;100278.06;;;14.74;50.72
61761;BME280;47664;51.660;-0.100;2023-08-31T04:59:37;100279.53;;;14.88;50.41
61761;BME280;47664;51.660;-0.100;2023-08-31T05:02:04;100277.58;;;14.90;50.41
61761;BME280;47664;51.660;-0.100;2023-08-31T05:04:31;100275.95;;;14.57;50.41
61761;BME280;47664;51.660;-0.100;2023-08-31T05:06:58;100272.72;;;14.67;50.17
61761;BME280;47664;51.660;-0.100;2023-08-31T05:09:25;100269.08;;;14.81;50.31
61761;BME280;47664;51.660;-0.100;2023-08-31T05:11:52;100271.90;;;14.63;50.59
61761;BME280;47664;51.660;-0.100;2023-08-31T05:14:19;100272.37;;;14.78;50.97
61761;BME280;47664;51.660;-0.100;2023-08-31T05:16:46;100265.69;;;14.29;50.75
61761;BME280;47664;51.660;-0.100;2023-08-31T05:19:14;100267.18;;;14.86;50.54
61761;BME280;47664;51.660;-0.100;2023-08-31T05:21:41;100266.43;;;14.85;50.65
61761;BME280;47664;51.660;-0.100;2023-08-31T05:24:08;100270.76;;;14.73;51.01
61761;BME280;47664;51.660;-0.100;2023-08-31T05:26:35;100271.34;;;14.92;50.80
61761;BME280;47664;51.660;-0.100;2023-08-31T05:29:03;100272.08;;;14.69;50.84
61761;BME280;47664;51.660;-0.100;2023-08-31T05:31:30;100272.46;;;14.93;50.89
61761;BME280;47664;51.660;-0.100;2023-08-31T05:33:57;100273.19;;;14.69;50.81
61761;BME280;47664;51.660;-0.100;2023-08-31T05:36:25;100278.75;;;15.09;50.52
61761;BME280;47664;51.660;-0.100;2023-08-31T05:38:52;100280.14;;;14.61;50.44
61761;BME280;47664;51.660;-0.100;2023-08-31T05:41:19;100278.82;;;14.97;50.64
61761;BME280;47664;51.660;-0.100;2023-08-31T05:43:46;100278.97;;;14.76;50.51
61761;BME280;47664;51.660;-0.100;2023-08-31T05:46:13;100278.38;;;15.29;50.51
61761;BME280;47664;51.660;-0.100;2023-08-31T05:48:41;100277.62;;;14.87;50.92
61761;BME280;47664;51.660;-0.100;2023-08-31T05:51:08;100274.90;;;14.97;50.87
61761;BME280;47664;51.660;-0.100;2023-08-31T05:53:35;100273.44;;;14.72;51.02
61761;BME280;47664;51.660;-0.100;2023-08-31T05:56:02;100278.38;;;14.89;50.86
61761;BME280;47664;51.660;-0.100;2023-08-31T05:58:30;100285.11;;;15.07;50.92
61761;BME280;47664;51.660;-0.100;2023-08-31T06:00:57;100288.69;;;14.93;50.70
61761;BME280;47664;51.660;-0.100;2023-08-31T06:03:24;100288.64;;;14.95;50.84
61761;BME280;47664;51.660;-0.100;2023-08-31T06:05:51;100289.21;;;14.57;51.05
61761;BME280;47664;51.660;-0.100;2023-08-31T06:08:18;100285.58;;;15.30;50.57
61761;BME280;47664;51.660;-0.100;2023-08-31T06:10:45;100283.16;;;14.91;50.56
61761;BME280;47664;51.660;-0.100;2023-08-31T06:13:13;100289.60;;;15.59;50.64
61761;BME280;47664;51.660;-0.100;2023-08-31T06:15:39;100292.55;;;15.12;50.90
61761;BME280;47664;51.660;-0.100;2023-08-31T06:18:06;100296.58;;;15.37;50.74
61761;BME280;47664;51.660;-0.100;2023-08-31T06:20:33;100295.08;;;15.28;50.16
61761;BME280;47664;51.660;-0.100;2023-08-31T06:23:00;100298.93;;;15.47;50.62
61761;BME280;47664;51.660;-0.100;2023-08-31T06:25:27;100298.77;;;15.34;50.66
61761;BME280;47664;51.660;-0.100;2023-08-31T06:27:54;100299.45;;;15.18;50.27
61761;BME280;47664;51.660;-0.100;2023-08-31T06:30:21;100295.83;;;15.72;50.48
61761;BME280;47664;51.660;-0.100;2023-08-31T06:32:48;100291.15;;;15.28;49.78
61761;BME280;47664;51.660;-0.100;2023-08-31T06:35:15;100293.54;;;15.80;49.69
61761;BME280;47664;51.660;-0.100;2023-08-31T06:37:42;100292.40;;;15.68;49.57
61761;BME280;47664;51.660;-0.100;2023-08-31T06:40:10;100293.33;;;15.59;49.70
61761;BME280;47664;51.660;-0.100;2023-08-31T06:42:37;100297.17;;;15.50;50.06
61761;BME280;47664;51.660;-0.100;2023-08-31T06:45:07;100303.57;;;15.62;49.72
61761;BME280;47664;51.660;-0.100;2023-08-31T06:47:34;100308.81;;;15.88;49.85
61761;BME280;47664;51.660;-0.100;2023-08-31T06:50:02;100305.95;;;15.99;49.87
61761;BME280;47664;51.660;-0.100;2023-08-31T06:52:29;100309.09;;;15.76;50.04
61761;BME280;47664;51.660;-0.100;2023-08-31T06:54:57;100309.62;;;15.61;50.05
61761;BME280;47664;51.660;-0.100;2023-08-31T06:57:25;100313.25;;;15.70;50.50
61761;BME280;47664;51.660;-0.100;2023-08-31T06:59:52;100314.34;;;15.43;50.13
61761;BME280;47664;51.660;-0.100;2023-08-31T07:02:20;100319.29;;;15.61;50.67
61761;BME280;47664;51.660;-0.100;2023-08-31T07:04:47;100319.41;;;14.87;51.32
61761;BME280;47664;51.660;-0.100;2023-08-31T07:07:14;100317.53;;;15.09;51.55
61761;BME280;47664;51.660;-0.100;2023-08-31T07:09:42;100314.29;;;15.22;51.81
61761;BME280;47664;51.660;-0.100;2023-08-31T07:12:09;100305.92;;;14.85;52.32
61761;BME280;47664;51.660;-0.100;2023-08-31T07:14:37;100308.53;;;15.14;52.07
61761;BME280;47664;51.660;-0.100;2023-08-31T07:17:05;100309.41;;;14.90;52.48
61761;BME280;47664;51.660;-0.100;2023-08-31T07:19:35;100311.49;;;15.00;52.68
61761;BME280;47664;51.660;-0.100;2023-08-31T07:22:02;100314.90;;;15.49;52.61
61761;BME280;47664;51.660;-0.100;2023-08-31T07:24:30;100312.84;;;15.57;51.61
61761;BME280;47664;51.660;-0.100;2023-08-31T07:26:57;100311.48;;;15.29;51.05
61761;BME280;47664;51.660;-0.100;2023-08-31T07:29:24;100313.58;;;15.62;50.73
61761;BME280;47664;51.660;-0.100;2023-08-31T07:31:52;100313.78;;;15.45;50.75
61761;BME280;47664;51.660;-0.100;2023-08-31T07:34:19;100313.33;;;15.85;50.36
61761;BME280;47664;51.660;-0.100;2023-08-31T07:36:46;100308.85;;;15.71;49.97
61761;BME280;47664;51.660;-0.100;2023-08-31T07:39:13;100309.79;;;15.95;50.14
61761;BME280;47664;51.660;-0.100;2023-08-31T07:41:40;100308.57;;;16.31;49.58
61761;BME280;47664;51.660;-0.100;2023-08-31T07:44:07;100312.47;;;15.80;49.96
61761;BME280;47664;51.660;-0.100;2023-08-31T07:46:34;100316.12;;;15.82;49.97
61761;BME280;47664;51.660;-0.100;2023-08-31T07:49:01;100321.13;;;15.97;49.67
61761;BME280;47664;51.660;-0.100;2023-08-31T07:51:28;100320.69;;;15.88;49.90
61761;BME280;47664;51.660;-0.100;2023-08-31T07:53:55;100323.68;;;15.91;50.14
61761;BME280;47664;51.660;-0.100;2023-08-31T07:56:22;100323.57;;;15.82;50.32
61761;BME280;47664;51.660;-0.100;2023-08-31T07:58:50;100321.24;;;15.65;50.92
61761;BME280;47664;51.660;-0.100;2023-08-31T08:01:17;100317.02;;;15.37;51.51
61761;BME280;47664;51.660;-0.100;2023-08-31T08:03:44;100316.00;;;15.52;51.18
61761;BME280;47664;51.660;-0.100;2023-08-31T08:06:11;100311.21;;;15.52;51.03
61761;BME280;47664;51.660;-0.100;2023-08-31T08:08:38;100306.30;;;16.12;50.72
61761;BME280;47664;51.660;-0.100;2023-08-31T08:11:05;100306.24;;;16.23;50.43
61761;BME280;47664;51.660;-0.100;2023-08-31T08:13:33;100303.67;;;16.38;49.68
61761;BME280;47664;51.660;-0.100;2023-08-31T08:16:01;100301.89;;;16.49;49.87
61761;BME280;47664;51.660;-0.100;2023-08-31T08:18:28;100298.28;;;16.35;49.65
61761;BME280;47664;51.660;-0.100;2023-08-31T08:20:56;100298.76;;;16.47;49.66
61761;BME280;47664;51.660;-0.100;2023-08-31T08:23:24;100299.72;;;16.39;49.59
61761;BME280;47664;51.660;-0.100;2023-08-31T08:25:51;100304.14;;;16.14;49.50
61761;BME280;47664;51.660;-0.100;2023-08-31T08:28:18;100309.72;;;16.52;49.17
61761;BME280;47664;51.660;-0.100;2023-08-31T08:30:44;100312.44;;;16.76;49.33
61761;BME280;47664;51.660;-0.100;2023-08-31T08:33:11;100312.41;;;16.74;49.50
61761;BME280;47664;51.660;-0.100;2023-08-31T08:35:39;100313.55;;;16.67;49.09
61761;BME280;47664;51.660;-0.100;2023-08-31T08:38:06;100315.15;;;17.10;48.83
61761;BME280;47664;51.660;-0.100;2023-08-31T08:40:33;100314.46;;;16.81;48.91
61761;BME280;47664;51.660;-0.100;2023-08-31T08:43:01;100314.66;;;16.90;48.74
61761;BME280;47664;51.660;-0.100;2023-08-31T08:45:37;100311.94;;;16.75;49.03
61761;BME280;47664;51.660;-0.100;2023-08-31T08:48:05;100312.78;;;16.89;49.34
61761;BME280;47664;51.660;-0.100;2023-08-31T08:50:34;100312.79;;;16.79;49.27
61761;BME280;47664;51.660;-0.100;2023-08-31T08:53:01;100313.04;;;16.58;49.49
61761;BME280;47664;51.660;-0.100;2023-08-31T08:55:29;100312.55;;;16.92;48.93
61761;BME280;47664;51.660;-0.100;2023-08-31T08:57:58;100312.75;;;16.98;48.99
61761;BME280;47664;51.660;-0.100;2023-08-31T09:00:26;100308.88;;;16.80;47.91
61761;BME280;47664;51.660;-0.100;2023-08-31T09:02:54;100306.50;;;17.15;47.89
61761;BME280;47664;51.660;-0.100;2023-08-31T09:05:22;100302.49;;;16.99;47.89
61761;BME280;47664;51.660;-0.100;2023-08-31T09:08:06;100298.03;;;16.89;47.57
61761;BME280;47664;51.660;-0.100;2023-08-31T09:10:35;100297.83;;;16.89;46.92
61761;BME280;47664;51.660;-0.100;2023-08-31T09:13:05;100298.87;;;16.67;47.31
61761;BME280;47664;51.660;-0.100;2023-08-31T09:15:38;100303.04;;;17.32;46.31
61761;BME280;47664;51.660;-0.100;2023-08-31T09:18:06;100303.69;;;16.69;47.25
61761;BME280;47664;51.660;-0.100;2023-08-31T09:20:43;100304.14;;;17.08;47.76
61761;BME280;47664;51.660;-0.100;2023-08-31T09:23:10;100301.94;;;16.90;47.43
61761;BME280;47664;51.660;-0.100;2023-08-31T09:25:42;100306.23;;;16.95;47.97
61761;BME280;47664;51.660;-0.100;2023-08-31T09:28:09;100302.84;;;16.93;47.16
61761;BME280;47664;51.660;-0.100;2023-08-31T09:30:36;100302.00;;;17.06;45.81
61761;BME280;47664;51.660;-0.100;2023-08-31T09:33:04;100297.43;;;17.11;45.99
61761;BME280;47664;51.660;-0.100;2023-08-31T09:35:31;100299.22;;;17.05;46.71
61761;BME280;47664;51.660;-0.100;2023-08-31T09:37:58;100301.07;;;17.27;46.74
61761;BME280;47664;51.660;-0.100;2023-08-31T09:40:25;100301.62;;;17.41;46.28
61761;BME280;47664;51.660;-0.100;2023-08-31T09:42:53;100300.59;;;17.44;46.10
61761;BME280;47664;51.660;-0.100;2023-08-31T09:45:27;100301.61;;;17.00;46.81
61761;BME280;47664;51.660;-0.100;2023-08-31T09:47:55;100305.44;;;17.32;46.89
61761;BME280;47664;51.660;-0.100;2023-08-31T09:50:24;100302.71;;;17.03;46.66
61761;BME280;47664;51.660;-0.100;2023-08-31T09:52:55;100301.54;;;17.23;45.78
61761;BME280;47664;51.660;-0.100;2023-08-31T09:55:25;100306.33;;;17.64;44.70
61761;BME280;47664;51.660;-0.100;2023-08-31T09:57:57;100301.22;;;17.59;44.38
61761;BME280;47664;51.660;-0.100;2023-08-31T10:00:26;100303.89;;;17.89;44.94
61761;BME280;47664;51.660;-0.100;2023-08-31T10:02:56;100303.65;;;17.81;44.75
61761;BME280;47664;51.660;-0.100;2023-08-31T10:05:24;100305.62;;;17.62;45.00
61761;BME280;47664;51.660;-0.100;2023-08-31T10:07:51;100303.08;;;17.30;45.02
61761;BME280;47664;51.660;-0.100;2023-08-31T10:10:19;100303.92;;;17.82;45.35
61761;BME280;47664;51.660;-0.100;2023-08-31T10:12:48;100301.38;;;17.41;44.91
61761;BME280;47664;51.660;-0.100;2023-08-31T10:15:16;100300.82;;;17.78;44.21
61761;BME280;47664;51.660;-0.100;2023-08-31T10:17:44;100298.63;;;17.75;44.54
61761;BME280;47664;51.660;-0.100;2023-08-31T10:20:14;100299.45;;;17.74;44.03
61761;BME280;47664;51.660;-0.100;2023-08-31T10:22:43;100298.31;;;17.98;43.39
61761;BME280;47664;51.660;-0.100;2023-08-31T10:25:11;100297.31;;;18.24;43.61
61761;BME280;47664;51.660;-0.100;2023-08-31T10:27:39;100299.77;;;18.17;44.45
61761;BME280;47664;51.660;-0.100;2023-08-31T10:30:16;100299.00;;;18.07;43.39
61761;BME280;47664;51.660;-0.100;2023-08-31T10:33:20;100296.62;;;17.66;43.60
61761;BME280;47664;51.660;-0.100;2023-08-31T10:35:52;100293.79;;;18.30;42.64
61761;BME280;47664;51.660;-0.100;2023-08-31T10:38:25;100296.56;;;18.17;43.16
61761;BME280;47664;51.660;-0.100;2023-08-31T10:41:02;100294.73;;;17.87;44.15
61761;BME280;47664;51.660;-0.100;2023-08-31T10:43:51;100291.16;;;17.82;43.99
61761;BME280;47664;51.660;-0.100;2023-08-31T10:46:26;100288.31;;;17.92;45.45
61761;BME280;47664;51.660;-0.100;2023-08-31T10:48:55;100285.96;;;17.57;44.39
61761;BME280;47664;51.660;-0.100;2023-08-31T10:51:24;100282.11;;;17.70;45.47
61761;BME280;47664;51.660;-0.100;2023-08-31T10:53:51;100286.04;;;17.58;45.89
61761;BME280;47664;51.660;-0.100;2023-08-31T10:56:18;100281.15;;;17.73;45.67
61761;BME280;47664;51.660;-0.100;2023-08-31T10:59:01;100281.76;;;17.69;45.62
61761;BME280;47664;51.660;-0.100;2023-08-31T11:02:01;100280.67;;;17.99;45.80
61761;BME280;47664;51.660;-0.100;2023-08-31T11:04:30;100286.77;;;18.30;45.53
61761;BME280;47664;51.660;-0.100;2023-08-31T11:07:14;100285.22;;;18.03;45.55
61761;BME280;47664;51.660;-0.100;2023-08-31T11:09:42;100282.94;;;17.82;46.11
61761;BME280;47664;51.660;-0.100;2023-08-31T11:12:10;100287.52;;;17.79;46.44
61761;BME280;47664;51.660;-0.100;2023-08-31T11:14:38;100291.50;;;17.82;47.10
61761;BME280;47664;51.660;-0.100;2023-08-31T11:17:05;100289.00;;;17.65;47.43
61761;BME280;47664;51.660;-0.100;2023-08-31T11:19:34;100290.22;;;18.25;46.23
61761;BME280;47664;51.660;-0.100;2023-08-31T11:22:03;100292.96;;;18.07;46.28
61761;BME280;47664;51.660;-0.100;2023-08-31T11:24:30;100293.80;;;18.00;46.73
61761;BME280;47664;51.660;-0.100;2023-08-31T11:26:59;100288.43;;;18.18;46.58
61761;BME280;47664;51.660;-0.100;2023-08-31T11:29:26;100284.02;;;18.00;46.84
61761;BME280;47664;51.660;-0.100;2023-08-31T11:31:55;100282.29;;;17.59;46.13
61761;BME280;47664;51.660;-0.100;2023-08-31T11:34:22;100281.67;;;18.19;45.81
61761;BME280;47664;51.660;-0.100;2023-08-31T11:36:49;100278.61;;;17.98;46.84
61761;BME280;47664;51.660;-0.100;2023-08-31T11:39:18;100278.30;;;18.33;46.19
61761;BME280;47664;51.660;-0.100;2023-08-31T11:41:46;100277.01;;;17.85;46.06
61761;BME280;47664;51.660;-0.100;2023-08-31T11:44:14;100277.07;;;18.85;45.99
61761;BME280;47664;51.660;-0.100;2023-08-31T11:46:45;100273.63;;;18.71;46.31
61761;BME280;47664;51.660;-0.100;2023-08-31T11:49:12;100275.80;;;18.55;46.54
61761;BME280;47664;51.660;-0.100;2023-08-31T11:51:40;100279.78;;;18.34;46.81
61761;BME280;47664;51.660;-0.100;2023-08-31T11:54:07;100283.55;;;18.33;46.80
61761;BME280;47664;51.660;-0.100;2023-08-31T11:56:43;100281.19;;;18.24;46.88
61761;BME280;47664;51.660;-0.100;2023-08-31T11:59:11;100279.21;;;18.61;46.15
61761;BME280;47664;51.660;-0.100;2023-08-31T12:01:40;100274.57;;;18.59;46.15
61761;BME280;47664;51.660;-0.100;2023-08-31T12:04:11;100271.31;;;18.63;45.83
61761;BME280;47664;51.660;-0.100;2023-08-31T12:06:39;100268.04;;;18.40;46.88
61761;BME280;47664;51.660;-0.100;2023-08-31T12:09:07;100265.86;;;18.23;46.53
61761;BME280;47664;51.660;-0.100;2023-08-31T12:11:34;100259.74;;;18.61;46.19
61761;BME280;47664;51.660;-0.100;2023-08-31T12:14:02;100266.78;;;18.45;45.83
61761;BME280;47664;51.660;-0.100;2023-08-31T12:16:34;100263.06;;;18.34;45.62
61761;BME280;47664;51.660;-0.100;2023-08-31T12:19:03;100262.62;;;18.96;45.50
61761;BME280;47664;51.660;-0.100;2023-08-31T12:21:30;100261.86;;;18.63;45.48
61761;BME280;47664;51.660;-0.100;2023-08-31T12:23:58;100253.65;;;18.30;45.56
61761;BME280;47664;51.660;-0.100;2023-08-31T12:26:25;100255.75;;;18.67;46.35
61761;BME280;47664;51.660;-0.100;2023-08-31T12:28:52;100252.31;;;19.05;45.88
61761;BME280;47664;51.660;-0.100;2023-08-31T12:31:21;100243.43;;;18.83;44.69
61761;BME280;47664;51.660;-0.100;2023-08-31T12:33:48;100249.04;;;18.23;45.39
61761;BME280;47664;51.660;-0.100;2023-08-31T12:36:16;100245.73;;;18.44;44.34
61761;BME280;47664;51.660;-0.100;2023-08-31T12:38:44;100239.45;;;18.62;44.53
61761;BME280;47664;51.660;-0.100;2023-08-31T12:41:11;100242.59;;;18.57;45.28
61761;BME280;47664;51.660;-0.100;2023-08-31T12:43:37;100247.50;;;18.45;45.50
61761;BME280;47664;51.660;-0.100;2023-08-31T12:46:04;100246.30;;;18.41;45.55